NCAR-RAP Real-Time Weather Data

Output produced by METARs form (21 July 2019  12:49 UTC)
found at http://weather.rap.ucar.edu/surface/
 
K0S9 211235Z AUTO 00000KT 10SM CLR 08/07 A2999 RMK AO2
 
K1S5 211235Z AUTO 00000KT 10SM CLR 08/07 A3002 RMK AO2 T00840074
 
K1YT 211158Z AUTO 14003KT 10SM CLR 12/M01 A3003 RMK AO2 SLPNO T01151006 10175 20109 50001 $
 
KALW 211153Z AUTO 13005KT 10SM CLR 14/03 A2999 RMK AO2 SLP148 T01440028 10217 20133 53001
 
KAWO 211156Z AUTO 00000KT 10SM 10/09 A2999 RMK AO2 SLP160 7//// T01000094 10161 20100 55002 $
 
KBFI 211153Z 00000KT 10SM CLR 15/10 A2998 RMK AO2 SLP153 T01500100 10206 20150 55002
 
KBLI 211153Z AUTO 00000KT 6SM R16/3500VP6000FT BR CLR 12/10 A2998 RMK AO2 SLP159 T01170100 10156 20111 55005
 
KBVS 211235Z AUTO 00000KT 9SM CLR 10/10 A3000 RMK A01
 
KCLM 211153Z AUTO 00000KT 10SM CLR 09/07 A3000 RMK AO2 SLP158 T00890072 10128 20083 56003
 
KCLS 211235Z AUTO 00000KT 10SM CLR 10/10 A2999 RMK AO2
 
 
KDEW 211153Z AUTO 10SM CLR 12/07 A3012 RMK AO2 SLP191 T01170067 10150 20089 58000 $
 
KEAT 211155Z AUTO 23006KT 10SM CLR 15/04 A3006 RMK AO2 SLP174 T01500039 10217 20150 52003
 
KELN 211153Z AUTO 06003KT 10SM CLR 09/04 A3006 RMK AO2 SLP172 T00890039 10167 20089 51001
 
KEPH 211153Z AUTO 36007KT 10SM CLR 17/06 A3005 RMK AO2 SLP168 T01720061 10194 20167 55000
 
KFHR 211153Z AUTO 00000KT 10SM CLR 10/08 A2999 RMK AO2 SLP156 T01000083 10122 20094 58003
 
KGEG 211153Z 05008KT 10SM FEW120 FEW160 14/06 A3010 RMK AO2 SLP182 T01390056 10200 20139 58000
 
KGRF 211158Z AUTO 12003KT 10SM CLR 11/10 A2998 RMK AO2 SLP155 T01070101 10195 20103 53001 $
 
 
KHQM 211153Z AUTO 00000KT 8SM CLR 12/11 A2999 RMK AO2 SLP159 T01170111 10156 20117 53001
 
KKLS 211156Z AUTO 00000KT 10SM CLR 12/11 A2999 RMK AO2 SLP158 T01170106 10189 20117 53005
 
KMWH 211152Z AUTO 01009KT 10SM CLR 16/06 A3005 RMK AO2 SLP168 T01560056 10222 20150 53001
 
KNUW 211156Z 25003KT 10SM FEW250 13/10 A3002 RMK AO2 SLP166 T01280100 10150 20117 58000 $
 
 
KOLM 211154Z AUTO 00000KT 10SM CLR 10/08 A2998 RMK AO2 SLP151 T01000083 10178 20094 53001
 
KOMK 211153Z AUTO 36009KT 10SM CLR 15/07 A3010 RMK AO2 SLP185 T01500067 10200 20139 53000
 
KORS 211235Z AUTO 00000KT 10SM CLR 12/10 A2998 RMK AO2
 
KPAE 211153Z AUTO 01004KT 10SM CLR 14/10 A2999 RMK AO2 SLP154 T01390100 10178 20128 56005
 
KPLU 211235Z AUTO 00000KT 10SM CLR 10/10 A2999 RMK AO2
 
KPSC 211153Z AUTO 28003KT 10SM CLR 12/07 A2999 RMK AO2 SLP153 T01170067 10172 20117 53001
 
KPUW 211153Z AUTO 00000KT 10SM CLR 11/03 A3007 RMK AO2 SLP175 T01060033 10133 20072 55006
 
KPWT 211156Z AUTO 00000KT 10SM CLR 10/08 A2999 RMK AO2 SLP171 6//// 7//// T01000078 10183 20100 53002
 
KRLD 211235Z AUTO 26003KT 10SM CLR 13/06 A3001 RMK AO2 T01250061
 
KRNT 211153Z AUTO 15003KT 6SM CLR 13/12 A2998 RMK AO2 SLP157 T01330117 10200 20133 53001 $
 
KSEA 211153Z 31003KT 10SM FEW250 15/10 A2999 RMK AO2 SLP159 T01500100 10194 20150 55000 $
 
KSFF 211153Z AUTO 00000KT 10SM CLR 11/06 A3010 RMK AO2 SLP185 T01060061 10161 20106 57001
 
KSHN 211153Z AUTO 29003KT 10SM CLR 08/06 A2996 RMK AO2 SLP145 T00830061 10156 20083 53000
 
KSKA 211158Z AUTO 05006KT 10SM CLR 11/05 A3010 RMK AO2 SLP187 T01130054 10173 20107 58002 $
 
KSMP 211156Z AUTO VRB04KT 10SM CLR 12/03 A3012 RMK AO2 SLP175 T01170033 10161 20111 55000 $
 
KTCM 211158Z AUTO 00000KT 10SM CLR 10/10 A2999 RMK AO2 SLP159 T01000098 10179 20100 53001 $
 
 
KTIW 211153Z AUTO 35003KT 10SM CLR 13/09 A2999 RMK AO2 SLP152 T01330089 10189 20133 53003 $
 
KUIL 211153Z AUTO 00000KT 10SM CLR 08/07 A2999 RMK AO2 SLP157 T00780067 10144 20078 53000
 
KVUO 211153Z AUTO 00000KT 10SM CLR 15/11 A2995 RMK AO2 SLP143 T01500106 10228 20139 53009
 
KYKM 211153Z AUTO 28007KT 10SM CLR 09/04 A3003 RMK AO2 SLP167 T00890044 10156 20089 55000